Coastal Messenger — CFL9726 — position and weather

sailwx.info

Track history (hours):
 
Tides and Currents Weather Stations Pressure Air Temp Water Temp Dewpoint Dewpoint Depression Visibility Wind Speed Wind Dir Waves Ship Positions

Coastal Messenger

Last reported at 2016-May-13 02:33 UTC. Time now 2016-May-29 15:26 UTC.
Position N 49°34' W 126°37'.
Warning: this ship's position is 16 days out of date.

Length 16 m.

Type: Pleasure craft. MMSI: 316016342.

Date/timePositionNaut miles runAvg speedWind from/ knotsBaromVisibWave heightAir tempDewpointWater temp
2016-May-13 02:33N 49°34' W 126°37'8 8.1
2016-May-13 01:34N 49°26' W 126°38'7 5.8
2016-May-13 00:17N 49°24' W 126°27'2 2.1
2016-May-12 23:33N 49°25' W 126°28'0 0.0
2016-May-12 22:33N 49°25' W 126°28'0 0.0
2016-May-12 21:33N 49°25' W 126°28'0 0.0
2016-May-12 20:30N 49°25' W 126°28'1 1.3
2016-May-12 19:30N 49°24' W 126°27'7 0.6
2016-May-12 07:17N 49°22' W 126°16'  
2016-May-06 22:21N 49°09' W 125°54'5 1.2
2016-May-06 18:04N 49°04' W 125°53'4 7.9
2016-May-06 17:32N 49°02' W 125°48'8 7.9
2016-May-06 16:33N 48°57' W 125°39'4 4.1
2016-May-06 15:31N 48°56' W 125°32'1 0.8
2016-May-06 14:32N 48°57' W 125°33'0 0.0
2016-May-06 13:32N 48°57' W 125°33'0 0.0
2016-May-06 12:32N 48°57' W 125°33'0 0.0
2016-May-06 11:32N 48°57' W 125°33'0 0.0
2016-May-06 10:32N 48°57' W 125°33'0 0.0
2016-May-06 09:32N 48°57' W 125°33'0 0.0
2016-May-06 08:32N 48°57' W 125°33'0 0.0
2016-May-06 07:32N 48°57' W 125°33'0 0.0
2016-May-06 06:32N 48°57' W 125°33'0 0.0
2016-May-06 05:32N 48°57' W 125°33'0 0.0
2016-May-06 04:32N 48°57' W 125°33'0 0.0
2016-May-06 03:32N 48°57' W 125°33'0 0.0
2016-May-06 02:32N 48°57' W 125°33'0 0.0
2016-May-06 01:32N 48°57' W 125°33'0 0.0
2016-May-06 00:32N 48°57' W 125°33'0 0.0
2016-May-05 23:32N 48°57' W 125°33'0 0.0
2016-May-05 22:32N 48°57' W 125°33'0 0.0
2016-May-05 21:32N 48°57' W 125°33'0 0.0
2016-May-05 20:32N 48°57' W 125°33'0 0.0
2016-May-05 19:32N 48°57' W 125°33'0 0.0
2016-May-05 18:32N 48°57' W 125°33'0 0.0
2016-May-05 17:29N 48°57' W 125°33'0 0.0
2016-May-05 16:32N 48°57' W 125°33'0 0.0
2016-May-05 15:32N 48°57' W 125°33'0 0.0
2016-May-05 14:32N 48°57' W 125°33'0 0.0
2016-May-05 13:32N 48°57' W 125°33'0 0.0
2016-May-05 12:32N 48°57' W 125°33'0 0.0
2016-May-05 11:32N 48°57' W 125°33'0 0.0
2016-May-05 10:32N 48°57' W 125°33'0 0.0
2016-May-05 09:32N 48°57' W 125°33'0 0.0
2016-May-05 08:32N 48°57' W 125°33'0 0.0
2016-May-05 07:32N 48°57' W 125°33'0 0.0
2016-May-05 06:32N 48°57' W 125°33'0 0.0
2016-May-05 05:32N 48°57' W 125°33'0 0.0
2016-May-05 04:32N 48°57' W 125°33'0 0.0
2016-May-05 03:29N 48°57' W 125°33'0 0.0
2016-May-05 02:32N 48°57' W 125°33'0 0.0
2016-May-05 01:32N 48°57' W 125°33'0 0.0
2016-May-05 00:32N 48°57' W 125°33'0 0.0
2016-May-04 23:32N 48°57' W 125°33'0 0.4
2016-May-04 22:33N 48°57' W 125°33'5 5.1
2016-May-04 21:33N 48°56' W 125°25'  
Track history (hours):
 
Tides and Currents Weather Stations Pressure Air Temp Water Temp Dewpoint Dewpoint Depression Visibility Wind Speed Wind Dir Waves Ship Positions

Coastal Messenger

Last reported at 2016-May-13 02:33 UTC. Time now 2016-May-29 15:26 UTC.
Position N 49°34' W 126°37'.
Warning: this ship's position is 16 days out of date.

Length 16 m.

Type: Pleasure craft. MMSI: 316016342.

Date/timePositionNaut miles runAvg speedWind from/ knotsBaromVisibWave heightAir tempDewpointWater temp
2016-May-13 02:33N 49°34' W 126°37'8 8.1
2016-May-13 01:34N 49°26' W 126°38'7 5.8
2016-May-13 00:17N 49°24' W 126°27'2 2.1
2016-May-12 23:33N 49°25' W 126°28'0 0.0
2016-May-12 22:33N 49°25' W 126°28'0 0.0
2016-May-12 21:33N 49°25' W 126°28'0 0.0
2016-May-12 20:30N 49°25' W 126°28'1 1.3
2016-May-12 19:30N 49°24' W 126°27'7 0.6
2016-May-12 07:17N 49°22' W 126°16'  
2016-May-06 22:21N 49°09' W 125°54'5 1.2
2016-May-06 18:04N 49°04' W 125°53'4 7.9
2016-May-06 17:32N 49°02' W 125°48'8 7.9
2016-May-06 16:33N 48°57' W 125°39'4 4.1
2016-May-06 15:31N 48°56' W 125°32'1 0.8
2016-May-06 14:32N 48°57' W 125°33'0 0.0
2016-May-06 13:32N 48°57' W 125°33'0 0.0
2016-May-06 12:32N 48°57' W 125°33'0 0.0
2016-May-06 11:32N 48°57' W 125°33'0 0.0
2016-May-06 10:32N 48°57' W 125°33'0 0.0
2016-May-06 09:32N 48°57' W 125°33'0 0.0
2016-May-06 08:32N 48°57' W 125°33'0 0.0
2016-May-06 07:32N 48°57' W 125°33'0 0.0
2016-May-06 06:32N 48°57' W 125°33'0 0.0
2016-May-06 05:32N 48°57' W 125°33'0 0.0
2016-May-06 04:32N 48°57' W 125°33'0 0.0
2016-May-06 03:32N 48°57' W 125°33'0 0.0
2016-May-06 02:32N 48°57' W 125°33'0 0.0
2016-May-06 01:32N 48°57' W 125°33'0 0.0
2016-May-06 00:32N 48°57' W 125°33'0 0.0
2016-May-05 23:32N 48°57' W 125°33'0 0.0
2016-May-05 22:32N 48°57' W 125°33'0 0.0
2016-May-05 21:32N 48°57' W 125°33'0 0.0
2016-May-05 20:32N 48°57' W 125°33'0 0.0
2016-May-05 19:32N 48°57' W 125°33'0 0.0
2016-May-05 18:32N 48°57' W 125°33'0 0.0
2016-May-05 17:29N 48°57' W 125°33'0 0.0
2016-May-05 16:32N 48°57' W 125°33'0 0.0
2016-May-05 15:32N 48°57' W 125°33'0 0.0
2016-May-05 14:32N 48°57' W 125°33'0 0.0
2016-May-05 13:32N 48°57' W 125°33'0 0.0
2016-May-05 12:32N 48°57' W 125°33'0 0.0
2016-May-05 11:32N 48°57' W 125°33'0 0.0
2016-May-05 10:32N 48°57' W 125°33'0 0.0
2016-May-05 09:32N 48°57' W 125°33'0 0.0
2016-May-05 08:32N 48°57' W 125°33'0 0.0
2016-May-05 07:32N 48°57' W 125°33'0 0.0
2016-May-05 06:32N 48°57' W 125°33'0 0.0
2016-May-05 05:32N 48°57' W 125°33'0 0.0
2016-May-05 04:32N 48°57' W 125°33'0 0.0
2016-May-05 03:29N 48°57' W 125°33'0 0.0
2016-May-05 02:32N 48°57' W 125°33'0 0.0
2016-May-05 01:32N 48°57' W 125°33'0 0.0
2016-May-05 00:32N 48°57' W 125°33'0 0.0
2016-May-04 23:32N 48°57' W 125°33'0 0.4
2016-May-04 22:33N 48°57' W 125°33'5 5.1
2016-May-04 21:33N 48°56' W 125°25'  

Dump ship's entire track history